Time;durP1;ratioP1;P1;durP2;ratioP2;P2;SDS_P1;SDS_P2;PMS_P1;PMS_P2;Temp;Humidity;BMP_temperature;BMP_pressure;BME280_temperature;BME280_humidity;BME280_pressure;Samples;Min_cycle;Max_cycle;Signal;HPM_P1;HPM_P2
2020/12/07 00:05:47;;;;;;;5.43;4.85;;;3.50;99.90;;;;;;5008824;28;20291;-85
2020/12/07 00:08:15;;;;;;;4.85;4.40;;;5.50;99.90;;;;;;5008451;28;20231;-83
2020/12/07 00:10:46;;;;;;;5.18;4.78;;;3.10;99.90;;;;;;5012890;28;20678;-84
2020/12/07 00:13:16;;;;;;;4.50;4.10;;;3.10;99.90;;;;;;5021510;28;20212;-83
2020/12/07 00:15:49;;;;;;;6.40;4.50;;;4.50;99.90;;;;;;5018304;28;20212;-84
2020/12/07 00:18:46;;;;;;;4.45;4.05;;;3.10;99.90;;;;;;5019078;28;20204;-83
2020/12/07 00:22:08;;;;;;;5.57;5.07;;;3.20;99.90;;;;;;5006680;28;20205;-85
2020/12/07 00:25:12;;;;;;;5.78;4.43;;;3.20;99.90;;;;;;4898988;29;20282;-82
2020/12/07 00:27:58;;;;;;;;;;;;;;;;;;;;;
2020/12/07 00:31:09;;;;;;;;;;;;;;;;;;;;;
2020/12/07 00:33:55;;;;;;;5.10;4.35;;;5.40;99.90;;;;;;5003030;28;20211;-87
2020/12/07 00:37:00;;;;;;;5.50;4.28;;;2.80;99.90;;;;;;5013660;28;20227;-85
2020/12/07 00:39:56;;;;;;;;;;;;;;;;;;;;;
2020/12/07 00:43:06;;;;;;;5.88;5.28;;;3.20;99.90;;;;;;5002757;28;20201;-85
2020/12/07 01:15:22;;;;;;;;;;;;;;;;;;;;;
2020/12/07 01:24:23;;;;;;;6.43;5.18;;;3.80;99.90;;;;;;4963287;28;20357;-84
2020/12/07 01:34:37;;;;;;;;;;;;;;;;;;;;;
2020/12/07 02:02:26;;;;;;;5.15;4.75;;;5.10;99.90;;;;;;4932996;28;20215;-82
2020/12/07 02:05:01;;;;;;;4.57;4.18;;;3.20;99.90;;;;;;5016782;28;20274;-82
2020/12/07 02:07:43;;;;;;;;;;;;;;;;;;;;;
2020/12/07 02:10:51;;;;;;;;;;;;;;;;;;;;;
2020/12/07 02:13:23;;;;;;;3.75;3.33;;;4.00;99.90;;;;;;4989199;28;20729;-83
2020/12/07 02:15:58;;;;;;;5.82;4.53;;;3.10;99.90;;;;;;5016282;28;20232;-84
2020/12/07 02:18:38;;;;;;;;;;;;;;;;;;;;;
2020/12/07 02:21:56;;;;;;;;;;;;;;;;;;;;;
2020/12/07 02:24:59;;;;;;;;;;;;;;;;;;;;;
2020/12/07 02:31:30;;;;;;;;;;;;;;;;;;;;;
2020/12/07 02:41:12;;;;;;;4.50;4.10;;;4.40;99.90;;;;;;4856561;29;20273;-82
2020/12/07 02:43:41;;;;;;;4.60;4.15;;;3.30;99.90;;;;;;4971361;28;20208;-82
2020/12/07 02:46:07;;;;;;;4.72;3.88;;;3.20;99.90;;;;;;5011780;28;20224;-82
2020/12/07 02:48:38;;;;;;;3.95;3.65;;;3.10;99.90;;;;;;5024338;28;20219;-83
2020/12/07 02:51:14;;;;;;;;;;;;;;;;;;;;;
2020/12/07 02:53:48;;;;;;;3.65;3.35;;;3.20;99.90;;;;;;5014975;28;20208;-80
2020/12/07 02:56:15;;;;;;;6.03;5.32;;;3.30;99.90;;;;;;5015821;28;20258;-81
2020/12/07 02:58:44;;;;;;;4.07;3.70;;;3.30;99.90;;;;;;5015267;28;20214;-80
2020/12/07 03:01:10;;;;;;;4.40;4.00;;;3.30;99.90;;;;;;5014446;28;20211;-81
2020/12/07 03:03:36;;;;;;;5.30;4.05;;;2.80;99.90;;;;;;5014310;28;20212;-83
2020/12/07 03:06:04;;;;;;;5.30;4.90;;;3.20;99.90;;;;;;5012731;28;20233;-85
2020/12/07 03:08:30;;;;;;;3.70;3.50;;;3.20;99.90;;;;;;5012570;28;20216;-82
2020/12/07 03:10:56;;;;;;;4.72;4.25;;;;;;;;;;5013823;28;20211;-83
2020/12/07 03:13:23;;;;;;;3.80;2.95;;;3.20;99.90;;;;;;5015538;28;20227;-85
2020/12/07 03:15:50;;;;;;;4.00;3.70;;;;;;;;;;5015534;28;20228;-84
2020/12/07 03:18:19;;;;;;;5.18;3.20;;;;;;;;;;5015785;28;20240;-84
2020/12/07 03:20:45;;;;;;;2.95;2.75;;;;;;;;;;5015547;28;20259;-84
2020/12/07 03:23:12;;;;;;;3.78;3.42;;;;;;;;;;5015125;28;20222;-83
2020/12/07 03:25:39;;;;;;;3.50;3.20;;;;;;;;;;5015431;28;20295;-82
2020/12/07 03:28:05;;;;;;;4.18;3.80;;;;;;;;;;5020626;28;20205;-82
2020/12/07 03:30:33;;;;;;;7.00;3.95;;;;;;;;;;5016067;28;20212;-83
2020/12/07 03:33:00;;;;;;;4.88;4.43;;;;;;;;;;5016834;28;20275;-83
2020/12/07 03:35:26;;;;;;;6.68;4.25;;;;;;;;;;5016222;28;20217;-82
2020/12/07 03:37:53;;;;;;;5.82;3.78;;;;;;;;;;5016484;28;20212;-85
2020/12/07 03:40:21;;;;;;;6.25;5.53;;;;;;;;;;5016891;28;20208;-84
2020/12/07 03:42:48;;;;;;;5.15;4.00;;;;;;;;;;5017196;28;20208;-84
2020/12/07 03:45:15;;;;;;;4.90;4.38;;;;;;;;;;5016059;28;20240;-84
2020/12/07 03:47:46;;;;;;;4.25;3.78;;;;;;;;;;5016388;28;20219;-83
2020/12/07 03:50:24;;;;;;;;;;;;;;;;;;;;;
2020/12/07 03:53:03;;;;;;;;;;;;;;;;;;;;;
2020/12/07 03:55:47;;;;;;;;;;;;;;;;;;;;;
2020/12/07 03:58:19;;;;;;;4.10;3.80;;;3.00;99.90;;;;;;5015423;28;20247;-84
2020/12/07 04:00:47;;;;;;;4.43;3.45;;;3.00;99.90;;;;;;5015056;28;20210;-83
2020/12/07 04:03:14;;;;;;;4.10;3.55;;;3.00;99.90;;;;;;5013347;28;20218;-82
2020/12/07 04:05:44;;;;;;;3.95;3.60;;;2.40;99.90;;;;;;5013307;28;20232;-82
2020/12/07 04:08:12;;;;;;;3.28;3.08;;;3.10;99.90;;;;;;5011304;28;20234;-85
2020/12/07 04:10:40;;;;;;;3.70;3.40;;;4.80;99.90;;;;;;5012258;28;20212;-85
2020/12/07 04:13:14;;;;;;;4.50;4.10;;;3.10;99.90;;;;;;5011556;28;20224;-85
2020/12/07 04:15:40;;;;;;;4.50;4.10;;;3.20;99.90;;;;;;5011378;28;20231;-84
2020/12/07 04:25:11;;;;;;;6.00;3.83;;;3.30;99.90;;;;;;4873717;29;20611;-83
2020/12/07 04:27:38;;;;;;;4.95;4.07;;;;;;;;;;4912819;28;20626;-84
2020/12/07 04:30:07;;;;;;;3.70;3.40;;;3.30;99.90;;;;;;5009831;28;20294;-85
2020/12/07 04:32:39;;;;;;;3.92;3.35;;;3.30;99.90;;;;;;5008943;28;20598;-84
2020/12/07 04:35:08;;;;;;;4.00;3.70;;;3.30;99.90;;;;;;5008789;28;20224;-84
2020/12/07 04:37:34;;;;;;;4.93;3.85;;;3.30;99.90;;;;;;5008719;28;20583;-84
2020/12/07 04:40:00;;;;;;;4.05;3.80;;;3.30;99.90;;;;;;5008260;28;20205;-84
2020/12/07 04:42:27;;;;;;;5.03;4.30;;;3.30;99.90;;;;;;5008623;28;20215;-85
2020/12/07 04:44:54;;;;;;;4.22;3.72;;;3.20;99.90;;;;;;5007625;28;20242;-84
2020/12/07 04:47:24;;;;;;;5.85;3.90;;;3.40;99.90;;;;;;5008157;28;20227;-85
2020/12/07 04:49:52;;;;;;;3.75;3.45;;;3.40;99.90;;;;;;5007435;28;20212;-83
2020/12/07 04:52:19;;;;;;;4.13;3.70;;;3.50;99.90;;;;;;5006236;28;20210;-85
2020/12/07 04:54:46;;;;;;;7.80;4.30;;;3.60;99.90;;;;;;5007493;28;20228;-83
2020/12/07 04:57:15;;;;;;;5.40;4.50;;;3.50;99.90;;;;;;5015865;28;20209;-84
2020/12/07 04:59:42;;;;;;;5.18;4.68;;;3.60;99.90;;;;;;5016186;28;20210;-83
2020/12/07 05:02:10;;;;;;;4.13;3.83;;;3.50;99.90;;;;;;5015743;28;20210;-84
2020/12/07 05:04:36;;;;;;;4.10;3.65;;;3.60;99.90;;;;;;5015985;28;20675;-83
2020/12/07 05:07:04;;;;;;;3.60;3.30;;;3.60;99.90;;;;;;5015656;28;20212;-83
2020/12/07 05:09:32;;;;;;;3.45;3.25;;;3.60;99.90;;;;;;5015852;28;20226;-83
2020/12/07 05:12:01;;;;;;;5.15;4.65;;;3.60;99.90;;;;;;5015689;28;20248;-83
2020/12/07 05:14:28;;;;;;;3.90;3.50;;;3.60;99.90;;;;;;5015518;28;20199;-84
2020/12/07 05:16:54;;;;;;;5.20;4.70;;;3.70;99.90;;;;;;5015496;28;20207;-84
2020/12/07 05:19:22;;;;;;;6.10;4.30;;;3.70;99.90;;;;;;5015539;28;20218;-84
2020/12/07 05:21:49;;;;;;;4.47;3.95;;;3.60;99.90;;;;;;5014944;28;20214;-84
2020/12/07 05:24:15;;;;;;;6.88;4.72;;;3.50;99.90;;;;;;5015090;28;20228;-84
2020/12/07 05:26:42;;;;;;;3.95;3.55;;;3.30;99.90;;;;;;5015065;28;20288;-83
2020/12/07 05:29:12;;;;;;;5.13;4.53;;;3.60;99.90;;;;;;5015220;28;20267;-84
2020/12/07 05:31:38;;;;;;;7.78;5.93;;;3.70;99.90;;;;;;5015471;28;20200;-83
2020/12/07 05:34:05;;;;;;;5.07;4.68;;;3.70;99.90;;;;;;5014869;28;20231;-83
2020/12/07 05:36:32;;;;;;;6.68;6.05;;;3.60;99.90;;;;;;5014670;28;20256;-83
2020/12/07 05:38:59;;;;;;;6.60;5.15;;;3.60;99.90;;;;;;5015218;28;20717;-84
2020/12/07 05:41:29;;;;;;;6.00;4.78;;;3.60;99.90;;;;;;5015019;28;20260;-84
2020/12/07 05:43:57;;;;;;;5.93;5.32;;;3.70;99.90;;;;;;5015434;28;20223;-83
2020/12/07 05:46:26;;;;;;;5.70;5.22;;;3.70;99.90;;;;;;5014920;28;20283;-83
2020/12/07 05:48:56;;;;;;;7.07;6.00;;;3.70;99.90;;;;;;5014804;28;20208;-84
2020/12/07 05:51:31;;;;;;;6.22;4.72;;;3.70;99.90;;;;;;5014972;28;20212;-84
2020/12/07 05:57:14;;;;;;;6.05;5.25;;;4.90;99.90;;;;;;5013954;28;20216;-83
2020/12/07 05:59:56;;;;;;;6.70;5.30;;;3.70;99.90;;;;;;5017002;28;20251;-82
2020/12/07 06:02:42;;;;;;;7.32;5.20;;;4.10;99.90;;;;;;5017935;28;20193;-82
2020/12/07 06:05:27;;;;;;;6.75;5.57;;;3.70;99.90;;;;;;5015591;28;20254;-84
2020/12/07 06:08:36;;;;;;;6.13;5.47;;;3.60;99.90;;;;;;5014631;28;20212;-83
2020/12/07 06:14:35;;;;;;;7.90;6.10;;;3.60;99.90;;;;;;4970263;28;20210;-83
2020/12/07 06:17:35;;;;;;;6.80;5.82;;;3.50;99.90;;;;;;4984672;28;20219;-83
2020/12/07 06:20:12;;;;;;;6.55;5.55;;;3.50;99.90;;;;;;5014205;28;20212;-84
2020/12/07 06:26:18;;;;;;;;;;;;;;;;;;;;;
2020/12/07 06:28:52;;;;;;;11.77;7.30;;;3.30;99.90;;;;;;5010331;28;20215;-83
2020/12/07 06:31:25;;;;;;;8.43;6.32;;;3.20;99.90;;;;;;5013934;28;20222;-84
2020/12/07 06:37:28;;;;;;;;;;;;;;;;;;;;;
2020/12/07 06:44:22;;;;;;;;;;;;;;;;;;;;;
2020/12/07 06:59:38;;;;;;;13.25;6.85;;;3.30;99.90;;;;;;4935848;28;20211;-81
2020/12/07 07:02:04;;;;;;;6.65;5.93;;;3.20;99.90;;;;;;5005465;28;20232;-81
2020/12/07 07:04:30;;;;;;;7.85;5.75;;;3.20;99.90;;;;;;5002540;28;20244;-81
2020/12/07 07:06:58;;;;;;;6.63;5.57;;;3.30;99.90;;;;;;5002712;28;20581;-82
2020/12/07 07:09:25;;;;;;;6.93;6.20;;;3.30;99.90;;;;;;5004268;28;20311;-83
2020/12/07 07:11:51;;;;;;;9.40;6.03;;;3.30;99.90;;;;;;5008437;28;20212;-82
2020/12/07 07:14:18;;;;;;;6.95;5.35;;;3.40;99.90;;;;;;5012364;28;20209;-86
2020/12/07 07:16:44;;;;;;;6.88;5.50;;;3.40;99.90;;;;;;5013876;28;20246;-86
2020/12/07 07:19:12;;;;;;;7.88;6.30;;;3.50;99.90;;;;;;5014627;28;20215;-86
2020/12/07 07:21:50;;;;;;;7.22;6.50;;;3.50;99.90;;;;;;5015351;28;20220;-85
2020/12/07 07:24:16;;;;;;;6.78;6.15;;;3.60;99.90;;;;;;5016427;28;20204;-84
2020/12/07 07:26:47;;;;;;;7.70;5.78;;;3.60;99.90;;;;;;5020106;28;20208;-84
2020/12/07 07:29:14;;;;;;;7.78;5.55;;;3.60;99.90;;;;;;5025751;28;20204;-84
2020/12/07 07:31:40;;;;;;;6.50;5.97;;;3.60;99.90;;;;;;5031895;28;20195;-84
2020/12/07 07:34:06;;;;;;;6.80;5.63;;;3.70;99.90;;;;;;5035146;28;20278;-84
2020/12/07 07:36:33;;;;;;;7.30;6.60;;;3.60;99.90;;;;;;5035437;28;20290;-84
2020/12/07 07:39:00;;;;;;;6.95;5.97;;;3.50;99.90;;;;;;5035238;28;20207;-83
2020/12/07 07:41:27;;;;;;;7.68;6.35;;;3.60;99.90;;;;;;5034540;28;20231;-84
2020/12/07 07:43:55;;;;;;;6.25;5.63;;;3.80;99.90;;;;;;5035583;28;20268;-83
2020/12/07 07:46:23;;;;;;;5.28;4.85;;;3.80;99.90;;;;;;5034381;28;20235;-84
2020/12/07 07:49:05;;;;;;;8.82;6.55;;;3.80;99.90;;;;;;5034823;28;20243;-84
2020/12/07 07:52:23;;;;;;;7.93;6.18;;;3.70;99.90;;;;;;5033846;28;20210;-84
2020/12/07 08:00:59;;;;;;;6.72;6.07;;;3.80;99.90;;;;;;4990743;28;20287;-84
2020/12/07 08:20:31;;;;;;;7.28;6.25;;;4.10;99.90;;;;;;5026303;28;20218;-83
2020/12/07 08:22:59;;;;;;;7.15;5.80;;;4.10;99.90;;;;;;5017200;28;20218;-81
2020/12/07 08:25:44;;;;;;;7.57;6.35;;;4.10;99.90;;;;;;5018018;28;20264;-81
2020/12/07 08:28:28;;;;;;;7.85;6.75;;;4.20;99.90;;;;;;5023887;28;20654;-82
2020/12/07 08:31:10;;;;;;;9.13;7.15;;;4.20;99.90;;;;;;5037556;28;20213;-82
2020/12/07 08:33:39;;;;;;;7.70;6.90;;;4.20;99.90;;;;;;5037101;28;20227;-82
2020/12/07 08:36:07;;;;;;;6.82;6.20;;;4.30;99.90;;;;;;5037641;28;20228;-82
2020/12/07 08:38:39;;;;;;;6.65;5.63;;;4.30;99.90;;;;;;5037331;28;20253;-82
2020/12/07 08:41:11;;;;;;;6.90;5.75;;;4.40;99.90;;;;;;5037676;28;20211;-82
2020/12/07 08:43:39;;;;;;;7.82;5.85;;;4.40;99.90;;;;;;5037661;28;20295;-82
2020/12/07 08:46:07;;;;;;;7.22;6.10;;;4.50;99.90;;;;;;5037566;28;20243;-82
2020/12/07 08:48:34;;;;;;;5.90;5.25;;;4.50;99.90;;;;;;5036953;28;20216;-82
2020/12/07 08:51:02;;;;;;;7.47;6.65;;;4.50;99.90;;;;;;5037682;28;20207;-82
2020/12/07 08:53:28;;;;;;;7.93;6.15;;;4.50;99.90;;;;;;5036745;28;20212;-82
2020/12/07 08:55:54;;;;;;;6.97;5.30;;;4.60;99.90;;;;;;5037073;28;20232;-82
2020/12/07 08:58:20;;;;;;;5.43;4.93;;;4.60;99.90;;;;;;5036107;28;20215;-82
2020/12/07 09:00:47;;;;;;;6.97;6.28;;;4.60;99.90;;;;;;5037335;28;20211;-82
2020/12/07 09:03:14;;;;;;;5.88;4.88;;;4.60;99.90;;;;;;5037497;28;20209;-83
2020/12/07 09:05:40;;;;;;;6.32;5.72;;;4.70;99.90;;;;;;5036891;28;20256;-83
2020/12/07 09:08:07;;;;;;;8.15;5.60;;;4.70;99.90;;;;;;5035969;28;20213;-83
2020/12/07 09:10:34;;;;;;;6.82;5.88;;;4.80;99.90;;;;;;5036469;28;20212;-83
2020/12/07 09:13:01;;;;;;;5.95;5.40;;;4.80;99.90;;;;;;5036370;28;20229;-82
2020/12/07 09:15:27;;;;;;;6.28;5.75;;;4.90;99.90;;;;;;5036899;28;20228;-83
2020/12/07 09:17:54;;;;;;;5.32;4.43;;;4.90;99.90;;;;;;5036020;28;20204;-82
2020/12/07 09:20:20;;;;;;;6.57;5.25;;;5.00;99.90;;;;;;5040787;28;20205;-82
2020/12/07 09:22:46;;;;;;;6.95;5.72;;;5.20;99.90;;;;;;5045436;28;20226;-82
2020/12/07 09:25:13;;;;;;;4.30;3.90;;;5.30;99.90;;;;;;5047269;28;20243;-82
2020/12/07 09:27:40;;;;;;;5.78;4.88;;;5.30;99.90;;;;;;5046353;28;20208;-82
2020/12/07 09:30:06;;;;;;;5.43;4.68;;;5.40;99.90;;;;;;5045798;28;20197;-82
2020/12/07 09:32:32;;;;;;;5.55;5.05;;;5.50;99.90;;;;;;5046879;28;20210;-82
2020/12/07 09:34:59;;;;;;;6.32;5.35;;;5.50;99.90;;;;;;5042576;28;20226;-82
2020/12/07 09:37:25;;;;;;;7.45;5.20;;;5.60;99.90;;;;;;5037066;28;20223;-82
2020/12/07 09:39:52;;;;;;;6.00;5.50;;;5.60;99.90;;;;;;5036766;28;20567;-82
2020/12/07 09:42:19;;;;;;;5.93;5.28;;;5.60;99.90;;;;;;5036072;28;20211;-83
2020/12/07 09:44:45;;;;;;;5.38;4.90;;;5.60;99.90;;;;;;5036241;28;20226;-83
2020/12/07 09:57:06;;;;;;;6.45;5.05;;;5.90;99.90;;;;;;5011019;28;20295;-85
2020/12/07 10:36:28;;;;;;;4.78;4.10;;;6.30;99.90;;;;;;5731390;23;20259;-84
2020/12/07 10:39:41;;;;;;;4.15;3.78;;;6.30;99.90;;;;;;5028244;28;20223;-87
2020/12/07 12:50:41;;;;;;;4.97;4.32;;;5.80;99.90;;;;;;4913938;29;20278;-88
2020/12/07 14:51:35;;;;;;;2.60;2.40;;;;;;;;;;1210165;23;20527;-82
2020/12/07 14:54:05;;;;;;;3.53;3.22;;;5.30;99.90;;;;;;4987290;28;20225;-84
2020/12/07 15:16:12;;;;;;;3.55;2.53;;;4.80;99.90;;;;;;4973053;28;20723;-83
2020/12/07 15:18:39;;;;;;;3.72;3.00;;;4.80;99.90;;;;;;4973777;28;20223;-83
2020/12/07 15:21:07;;;;;;;5.93;3.63;;;3.90;99.90;;;;;;4973410;28;20657;-83
2020/12/07 15:23:35;;;;;;;4.18;3.78;;;4.70;99.90;;;;;;4971781;28;20225;-83
2020/12/07 15:26:03;;;;;;;4.65;3.78;;;5.30;99.90;;;;;;4972532;28;20232;-84
2020/12/07 15:28:29;;;;;;;6.07;4.65;;;4.60;99.90;;;;;;4973285;28;20214;-82
2020/12/07 15:31:01;;;;;;;4.03;3.30;;;4.60;99.90;;;;;;4972910;28;20211;-83
2020/12/07 15:33:37;;;;;;;4.13;3.83;;;4.30;99.90;;;;;;4971371;28;20310;-83
2020/12/07 15:36:05;;;;;;;4.65;4.10;;;4.50;99.90;;;;;;4969171;28;20226;-84
2020/12/07 15:38:33;;;;;;;4.93;4.53;;;4.40;99.90;;;;;;4970795;28;20298;-83
2020/12/07 15:41:00;;;;;;;5.80;4.60;;;4.20;99.90;;;;;;4972560;28;20214;-83
2020/12/07 15:43:27;;;;;;;3.65;3.35;;;4.20;99.90;;;;;;4972007;28;20302;-82
2020/12/07 15:45:54;;;;;;;4.95;3.50;;;4.30;99.90;;;;;;4972732;28;20210;-82
2020/12/07 15:48:21;;;;;;;4.38;3.97;;;4.50;99.90;;;;;;4972917;28;20216;-82
2020/12/07 15:50:48;;;;;;;3.75;3.53;;;4.30;99.90;;;;;;4972493;28;20701;-83
2020/12/07 15:53:14;;;;;;;4.57;3.00;;;4.40;99.90;;;;;;4972802;28;20218;-83
2020/12/07 15:55:41;;;;;;;5.70;5.15;;;4.50;99.90;;;;;;4970574;28;20232;-83
2020/12/07 15:58:09;;;;;;;6.65;4.40;;;3.90;99.90;;;;;;4972747;28;20210;-83
2020/12/07 16:00:35;;;;;;;4.78;4.00;;;4.70;99.90;;;;;;4971737;28;20215;-83
2020/12/07 16:03:03;;;;;;;4.75;3.85;;;4.60;99.90;;;;;;4971726;28;20242;-83
2020/12/07 16:05:30;;;;;;;4.85;4.40;;;4.20;99.90;;;;;;4972364;28;20233;-83
2020/12/07 16:07:56;;;;;;;5.60;4.63;;;4.00;99.90;;;;;;4971524;28;20221;-83
2020/12/07 16:10:23;;;;;;;4.65;4.15;;;4.40;99.90;;;;;;4971755;28;20235;-83
2020/12/07 16:12:49;;;;;;;4.25;3.90;;;4.20;99.90;;;;;;4971122;28;20225;-83
2020/12/07 16:15:17;;;;;;;4.40;4.00;;;4.50;99.90;;;;;;4970850;28;20240;-83
2020/12/07 16:17:46;;;;;;;7.22;4.45;;;4.30;99.90;;;;;;4969743;28;20218;-83
2020/12/07 16:20:13;;;;;;;3.60;3.30;;;4.40;99.90;;;;;;4969248;28;20209;-84
2020/12/07 16:22:39;;;;;;;4.50;4.15;;;4.40;99.90;;;;;;4968477;28;20214;-83
2020/12/07 16:25:06;;;;;;;5.35;4.10;;;4.40;99.90;;;;;;4967963;28;20236;-83
2020/12/07 16:27:32;;;;;;;5.75;5.07;;;4.20;99.90;;;;;;4968992;28;20213;-83
2020/12/07 16:29:59;;;;;;;6.47;4.47;;;4.40;99.90;;;;;;4968881;28;20211;-83
2020/12/07 16:32:26;;;;;;;4.50;4.10;;;4.40;99.90;;;;;;4968749;28;20209;-83
2020/12/07 16:34:53;;;;;;;4.47;4.07;;;4.50;99.90;;;;;;4968610;28;20235;-83
2020/12/07 16:37:22;;;;;;;4.38;3.95;;;4.50;99.90;;;;;;4968517;28;20215;-83
2020/12/07 16:39:50;;;;;;;4.55;3.65;;;4.60;99.90;;;;;;4968875;28;20210;-83
2020/12/07 16:42:17;;;;;;;4.13;3.78;;;4.50;99.90;;;;;;4968560;28;20275;-83
2020/12/07 16:44:44;;;;;;;7.10;4.90;;;4.40;99.90;;;;;;4967985;28;20236;-83
2020/12/07 16:47:10;;;;;;;4.35;4.03;;;4.60;99.90;;;;;;4967857;28;20227;-83
2020/12/07 16:49:37;;;;;;;3.88;3.58;;;4.50;99.90;;;;;;4968769;28;20230;-83
2020/12/07 16:52:04;;;;;;;6.55;4.55;;;4.60;99.90;;;;;;4968071;28;20254;-83
2020/12/07 16:54:33;;;;;;;4.32;3.92;;;4.50;99.90;;;;;;4969337;28;20593;-83
2020/12/07 16:57:00;;;;;;;5.75;4.50;;;4.70;99.90;;;;;;4971212;28;20246;-82
2020/12/07 16:59:26;;;;;;;4.85;4.35;;;4.60;99.90;;;;;;4971275;28;20215;-81
2020/12/07 17:01:52;;;;;;;5.15;4.50;;;4.60;99.90;;;;;;4971171;28;20226;-82
2020/12/07 17:04:18;;;;;;;5.65;4.55;;;4.60;99.90;;;;;;4971536;28;20223;-82
2020/12/07 17:06:45;;;;;;;5.35;4.15;;;4.90;99.90;;;;;;4971643;28;20316;-82
2020/12/07 17:09:12;;;;;;;5.15;4.68;;;4.50;99.90;;;;;;4970864;28;20217;-82
2020/12/07 17:11:38;;;;;;;6.55;5.20;;;4.60;99.90;;;;;;4970772;28;20205;-82
2020/12/07 17:14:04;;;;;;;5.82;5.32;;;4.50;99.90;;;;;;4971056;28;20675;-82
2020/12/07 17:16:31;;;;;;;6.45;5.28;;;4.10;99.90;;;;;;4971246;28;20231;-82
2020/12/07 17:18:57;;;;;;;5.95;5.05;;;4.70;99.90;;;;;;4971498;28;20293;-82
2020/12/07 17:21:27;;;;;;;5.40;4.90;;;4.50;99.90;;;;;;4970783;28;20234;-82
2020/12/07 17:23:55;;;;;;;5.28;4.88;;;4.50;99.90;;;;;;4971928;28;20225;-82
2020/12/07 17:26:22;;;;;;;8.60;5.38;;;4.60;99.90;;;;;;4971277;28;20239;-82
2020/12/07 17:28:48;;;;;;;6.28;5.50;;;4.50;99.90;;;;;;4970466;28;20206;-81
2020/12/07 17:31:15;;;;;;;5.93;5.40;;;4.50;99.90;;;;;;4970727;28;20688;-82
2020/12/07 17:33:41;;;;;;;5.95;5.35;;;4.50;99.90;;;;;;4970602;28;20696;-82
2020/12/07 17:36:07;;;;;;;5.53;4.75;;;4.60;99.90;;;;;;4970612;28;20233;-82
2020/12/07 17:38:34;;;;;;;6.90;5.63;;;4.60;99.90;;;;;;4971490;28;20223;-82
2020/12/07 17:41:01;;;;;;;5.72;5.00;;;4.50;99.90;;;;;;4970907;28;20214;-82
2020/12/07 17:43:27;;;;;;;5.70;4.88;;;4.40;99.90;;;;;;4971015;28;20206;-82
2020/12/07 17:45:56;;;;;;;6.05;5.55;;;4.80;99.90;;;;;;4970413;28;20243;-81
2020/12/07 17:48:23;;;;;;;6.63;6.00;;;4.20;99.90;;;;;;4971329;28;20220;-81
2020/12/07 17:50:55;;;;;;;7.65;6.53;;;4.20;99.90;;;;;;4970485;28;20667;-81
2020/12/07 17:53:27;;;;;;;7.63;6.70;;;4.10;99.90;;;;;;4970887;28;20225;-81
2020/12/07 17:55:59;;;;;;;6.45;5.57;;;4.10;99.90;;;;;;4970760;28;20221;-81
2020/12/07 17:58:28;;;;;;;6.45;5.82;;;4.10;99.90;;;;;;4970693;28;20273;-81
2020/12/07 18:00:55;;;;;;;7.10;5.75;;;4.00;99.90;;;;;;4971485;28;20282;-81
2020/12/07 18:03:36;;;;;;;6.70;6.10;;;3.80;99.90;;;;;;4970890;28;20213;-81
2020/12/07 18:06:02;;;;;;;6.72;4.78;;;3.70;99.90;;;;;;4970390;28;20236;-81
2020/12/07 18:08:29;;;;;;;8.05;5.55;;;3.70;99.90;;;;;;4971225;28;20219;-81
2020/12/07 18:10:55;;;;;;;7.75;6.15;;;3.70;99.90;;;;;;4971115;28;20286;-81
2020/12/07 18:13:23;;;;;;;7.45;6.38;;;3.50;99.90;;;;;;4969725;28;20214;-81
2020/12/07 18:15:51;;;;;;;6.80;6.10;;;3.70;99.90;;;;;;4970477;28;20230;-81
2020/12/07 18:18:18;;;;;;;6.63;5.78;;;3.60;99.90;;;;;;4970388;28;20217;-81
2020/12/07 18:20:44;;;;;;;6.35;5.72;;;3.40;99.90;;;;;;4971610;28;20209;-81
2020/12/07 18:23:11;;;;;;;6.43;5.68;;;3.60;99.90;;;;;;4971239;28;20238;-81
2020/12/07 18:25:37;;;;;;;7.20;6.20;;;3.50;99.90;;;;;;4970420;28;20502;-81
2020/12/07 18:28:06;;;;;;;5.63;5.13;;;3.30;99.90;;;;;;4969958;28;20207;-81
2020/12/07 18:30:35;;;;;;;7.10;6.40;;;3.40;99.90;;;;;;4969768;28;20217;-81
2020/12/07 18:33:02;;;;;;;5.45;5.05;;;3.40;99.90;;;;;;4971187;28;20260;-80
2020/12/07 18:35:29;;;;;;;8.30;7.25;;;3.30;99.90;;;;;;4970809;28;20225;-81
2020/12/07 18:37:56;;;;;;;8.10;6.38;;;3.40;99.90;;;;;;4970266;28;20214;-81
2020/12/07 18:40:25;;;;;;;7.05;6.18;;;3.40;99.90;;;;;;4965786;28;20217;-81
2020/12/07 18:42:53;;;;;;;10.93;6.88;;;3.40;99.90;;;;;;4965582;28;20219;-84
2020/12/07 18:45:27;;;;;;;9.55;7.25;;;3.10;99.90;;;;;;4962021;29;20230;-84
2020/12/07 18:48:16;;;;;;;8.82;7.43;;;3.40;99.90;;;;;;4967188;28;20288;-84
2020/12/07 18:50:44;;;;;;;7.10;5.95;;;3.90;99.90;;;;;;4968534;28;20264;-84
2020/12/07 18:53:14;;;;;;;7.95;7.20;;;3.60;99.90;;;;;;4968802;28;20222;-83
